Time;durP1;ratioP1;P1;durP2;ratioP2;P2;SDS_P1;SDS_P2;PMS_P1;PMS_P2;Temp;Humidity;BMP_temperature;BMP_pressure;BME280_temperature;BME280_humidity;BME280_pressure;Samples;Min_cycle;Max_cycle;Signal;HPM_P1;HPM_P2
2021/06/16 00:00:16;;;;;;;16.17;14.90;;;;;;;;;;5050471;28;20171;-58
2021/06/16 00:02:41;;;;;;;15.37;14.30;;;;;;;;;;5047896;28;20188;-58
2021/06/16 00:05:11;;;;;;;16.60;15.13;;;;;;;;;;5051600;28;20602;-59
2021/06/16 00:07:37;;;;;;;16.07;14.60;;;;;;;;;;5050081;28;20183;-58
2021/06/16 00:10:02;;;;;;;17.00;15.43;;;;;;;;;;5044228;28;20973;-58
2021/06/16 00:12:28;;;;;;;16.33;14.93;;;;;;;;;;5045633;28;20801;-59
2021/06/16 00:14:53;;;;;;;15.30;14.00;;;;;;;;;;5047658;28;20618;-58
2021/06/16 00:17:19;;;;;;;17.70;16.30;;;;;;;;;;5063327;28;20262;-58
2021/06/16 00:19:44;;;;;;;16.13;14.80;;;;;;;;;;5058319;28;20606;-58
2021/06/16 00:22:09;;;;;;;16.25;14.95;;;;;;;;;;5039981;28;20203;-59
2021/06/16 00:24:34;;;;;;;16.50;15.00;;;;;;;;;;5054282;28;20248;-58
2021/06/16 00:27:00;;;;;;;16.73;15.43;;;;;;;;;;5040650;28;20267;-58
2021/06/16 00:29:25;;;;;;;15.53;14.33;;;;;;;;;;5042554;28;20545;-58
2021/06/16 00:31:50;;;;;;;17.03;15.43;;;;;;;;;;5060666;28;20196;-59
2021/06/16 00:34:15;;;;;;;17.30;16.00;;;;;;;;;;5041693;28;20183;-59
2021/06/16 00:36:42;;;;;;;16.98;15.68;;;;;;;;;;5051323;28;20209;-58
2021/06/16 00:39:08;;;;;;;16.73;15.47;;;;;;;;;;5040714;28;20179;-59
2021/06/16 00:41:33;;;;;;;17.60;16.20;;;;;;;;;;5055992;28;20612;-59
2021/06/16 00:43:58;;;;;;;16.80;15.50;;;;;;;;;;5053333;28;20230;-59
2021/06/16 00:46:24;;;;;;;16.23;15.00;;;;;;;;;;5055954;28;20852;-59
2021/06/16 00:48:49;;;;;;;17.05;15.70;;;;;;;;;;5052994;28;20277;-60
2021/06/16 00:51:14;;;;;;;15.70;14.40;;;;;;;;;;5050839;28;20174;-59
2021/06/16 00:53:39;;;;;;;16.37;14.93;;;;;;;;;;5056555;28;20225;-59
2021/06/16 00:56:04;;;;;;;17.60;16.23;;;;;;;;;;5058273;28;20221;-59
2021/06/16 00:58:29;;;;;;;16.80;15.40;;;;;;;;;;5057658;28;20186;-59
2021/06/16 01:00:58;;;;;;;18.53;17.03;;;;;;;;;;5044460;28;20172;-59
2021/06/16 01:03:33;;;;;;;17.87;16.47;;;;;;;;;;5043041;28;20179;-59
2021/06/16 01:06:01;;;;;;;19.30;17.80;;;;;;;;;;5042960;28;20748;-59
2021/06/16 01:08:28;;;;;;;18.50;16.97;;;;;;;;;;5045106;28;20609;-59
2021/06/16 01:10:54;;;;;;;18.10;16.70;;;;;;;;;;5063879;28;20596;-59
2021/06/16 01:13:23;;;;;;;17.57;16.03;;;;;;;;;;5053101;28;20615;-59
2021/06/16 01:15:54;;;;;;;18.13;16.63;;;;;;;;;;5048470;28;20654;-59
2021/06/16 01:18:20;;;;;;;19.03;17.43;;;;;;;;;;5052142;28;20712;-59
2021/06/16 01:20:48;;;;;;;18.47;17.07;;;;;;;;;;5046025;28;20701;-59
2021/06/16 01:23:32;;;;;;;19.20;17.53;;;;;;;;;;5045728;28;20266;-59
2021/06/16 01:26:01;;;;;;;19.07;17.30;;;;;;;;;;5045444;28;20613;-59
2021/06/16 01:28:36;;;;;;;18.10;16.50;;;;;;;;;;5042260;28;20713;-59
2021/06/16 01:31:02;;;;;;;19.87;18.10;;;;;;;;;;5051835;28;20597;-59
2021/06/16 01:33:27;;;;;;;18.10;16.70;;;;;;;;;;5054661;28;20613;-58
2021/06/16 01:35:54;;;;;;;18.17;16.67;;;;;;;;;;5051397;28;20293;-58
2021/06/16 01:38:21;;;;;;;18.20;16.70;;;;;;;;;;5045843;28;20184;-58
2021/06/16 01:40:47;;;;;;;18.13;16.73;;;;;;;;;;5041696;28;20641;-58
2021/06/16 01:43:12;;;;;;;19.37;17.87;;;;;;;;;;5046903;28;21198;-58
2021/06/16 01:45:39;;;;;;;17.77;16.30;;;;;;;;;;5053617;28;20546;-58
2021/06/16 01:48:06;;;;;;;17.90;16.30;;;;;;;;;;5049387;28;20172;-58
2021/06/16 01:50:32;;;;;;;18.20;16.67;;;;;;;;;;5047173;28;20590;-58
2021/06/16 01:52:58;;;;;;;16.93;15.53;;;;;;;;;;5062988;28;20640;-58
2021/06/16 01:55:23;;;;;;;17.13;15.83;;;;;;;;;;5050727;28;20292;-58
2021/06/16 01:57:50;;;;;;;17.40;15.90;;;;;;;;;;5052545;28;20173;-58
2021/06/16 02:00:16;;;;;;;18.00;16.60;;;;;;;;;;5045231;28;20190;-58
2021/06/16 02:02:42;;;;;;;17.30;15.90;;;;;;;;;;5045807;28;20621;-58
2021/06/16 02:05:08;;;;;;;20.10;18.50;;;;;;;;;;5050157;28;21487;-58
2021/06/16 02:07:35;;;;;;;18.57;16.97;;;;;;;;;;5044191;28;20269;-58
2021/06/16 02:10:01;;;;;;;18.50;17.00;;;;;;;;;;5046874;28;20883;-58
2021/06/16 02:12:26;;;;;;;18.47;16.90;;;;;;;;;;5045265;28;20843;-59
2021/06/16 02:14:56;;;;;;;18.07;16.60;;;;;;;;;;5047708;28;20178;-59
2021/06/16 02:17:21;;;;;;;17.00;15.67;;;;;;;;;;5045730;28;20171;-58
2021/06/16 02:19:47;;;;;;;18.40;16.90;;;;;;;;;;5052120;28;21048;-58
2021/06/16 02:22:13;;;;;;;19.37;17.80;;;;;;;;;;5045007;28;20172;-59
2021/06/16 02:24:39;;;;;;;19.17;17.37;;;;;;;;;;5045290;28;20612;-58
2021/06/16 02:27:04;;;;;;;17.33;16.10;;;;;;;;;;5041609;28;20211;-59
2021/06/16 02:29:30;;;;;;;19.53;17.83;;;;;;;;;;5051466;28;20740;-59
2021/06/16 02:31:55;;;;;;;18.67;17.17;;;;;;;;;;5048744;28;20655;-59
2021/06/16 02:34:20;;;;;;;17.07;15.60;;;;;;;;;;5059633;28;20979;-59
2021/06/16 02:36:47;;;;;;;17.30;15.90;;;;;;;;;;5047630;28;20198;-59
2021/06/16 02:39:14;;;;;;;18.77;17.20;;;;;;;;;;5051235;28;20166;-59
2021/06/16 02:41:41;;;;;;;20.43;18.73;;;;;;;;;;5043159;28;20900;-59
2021/06/16 02:44:06;;;;;;;19.47;17.80;;;;;;;;;;5046725;28;20598;-59
2021/06/16 02:46:33;;;;;;;18.50;17.00;;;;;;;;;;5056887;28;21461;-59
2021/06/16 02:48:59;;;;;;;20.03;18.37;;;;;;;;;;5048168;28;20640;-59
2021/06/16 02:51:24;;;;;;;18.00;16.47;;;;;;;;;;5046875;28;20712;-59
2021/06/16 02:53:50;;;;;;;19.40;18.00;;;;;;;;;;5057002;28;21007;-58
2021/06/16 02:56:16;;;;;;;19.70;17.90;;;;;;;;;;5059382;28;20222;-58
2021/06/16 02:58:42;;;;;;;18.33;16.93;;;;;;;;;;5057312;28;20186;-59
2021/06/16 03:01:09;;;;;;;19.43;17.60;;;;;;;;;;5047858;28;20613;-59
2021/06/16 03:03:35;;;;;;;20.17;18.23;;;;;;;;;;5046242;28;20645;-59
2021/06/16 03:06:00;;;;;;;19.17;17.67;;;;;;;;;;5053721;28;20649;-59
2021/06/16 03:08:26;;;;;;;18.70;17.20;;;;;;;;;;5051783;28;20735;-59
2021/06/16 03:10:52;;;;;;;19.83;18.10;;;;;;;;;;5044293;28;20181;-59
2021/06/16 03:13:18;;;;;;;19.30;17.80;;;;;;;;;;5050211;28;20602;-59
2021/06/16 03:15:45;;;;;;;18.33;16.83;;;;;;;;;;5052886;28;20649;-59
2021/06/16 03:18:11;;;;;;;18.50;17.20;;;;;;;;;;5056847;28;20190;-62
2021/06/16 03:20:36;;;;;;;18.53;17.13;;;;;;;;;;5043714;28;20620;-60
2021/06/16 03:23:02;;;;;;;18.33;16.83;;;;;;;;;;5057578;28;20182;-61
2021/06/16 03:25:27;;;;;;;18.13;16.73;;;;;;;;;;5044251;28;20195;-60
2021/06/16 03:27:53;;;;;;;18.60;17.10;;;;;;;;;;5045705;28;20179;-60
2021/06/16 03:30:19;;;;;;;18.10;16.60;;;;;;;;;;5045370;28;20324;-60
2021/06/16 03:32:44;;;;;;;18.20;16.80;;;;;;;;;;5047477;28;20183;-60
2021/06/16 03:35:10;;;;;;;18.17;16.87;;;;;;;;;;5047168;28;20610;-58
2021/06/16 03:37:36;;;;;;;18.17;16.80;;;;;;;;;;5040872;28;20630;-58
2021/06/16 03:40:02;;;;;;;16.63;15.43;;;;;;;;;;5047166;28;20548;-58
2021/06/16 03:42:27;;;;;;;17.50;16.10;;;;;;;;;;5045771;28;21006;-58
2021/06/16 03:44:54;;;;;;;19.50;17.87;;;;;;;;;;5045760;28;20685;-58
2021/06/16 03:47:20;;;;;;;18.00;16.70;;;;;;;;;;5045513;28;20190;-59
2021/06/16 03:49:46;;;;;;;18.53;16.80;;;;;;;;;;5053983;28;20589;-59
2021/06/16 03:52:12;;;;;;;18.10;16.60;;;;;;;;;;5054072;28;20636;-59
2021/06/16 03:54:38;;;;;;;18.13;16.63;;;;;;;;;;5041996;28;20642;-59
2021/06/16 03:57:03;;;;;;;19.43;17.80;;;;;;;;;;5038106;28;20232;-59
2021/06/16 03:59:29;;;;;;;17.97;16.60;;;;;;;;;;5037132;28;20180;-60
2021/06/16 04:01:54;;;;;;;18.27;16.87;;;;;;;;;;5041590;28;20186;-59
2021/06/16 04:04:19;;;;;;;18.30;16.90;;;;;;;;;;5047647;28;20193;-59
2021/06/16 04:06:45;;;;;;;18.50;17.13;;;;;;;;;;5046053;28;20182;-59
2021/06/16 04:09:11;;;;;;;17.90;16.40;;;;;;;;;;5045015;28;20209;-59
2021/06/16 04:11:37;;;;;;;19.63;18.00;;;;;;;;;;5042326;28;20186;-59
2021/06/16 04:14:02;;;;;;;19.80;18.10;;;;;;;;;;5053652;28;20605;-59
2021/06/16 04:16:27;;;;;;;17.90;16.60;;;;;;;;;;5042369;28;20207;-60
2021/06/16 04:18:53;;;;;;;19.90;18.30;;;;;;;;;;5053402;28;20171;-60
2021/06/16 04:21:18;;;;;;;18.30;16.90;;;;;;;;;;5054794;28;20182;-60
2021/06/16 04:23:43;;;;;;;19.03;17.43;;;;;;;;;;5045103;28;20181;-59
2021/06/16 04:26:08;;;;;;;19.40;17.90;;;;;;;;;;5064228;28;20205;-60
2021/06/16 04:28:33;;;;;;;20.17;18.57;;;;;;;;;;5046048;28;20184;-58
2021/06/16 04:30:59;;;;;;;19.38;17.73;;;;;;;;;;5057391;28;20282;-61
2021/06/16 04:33:24;;;;;;;20.50;18.80;;;;;;;;;;5051047;28;20183;-60
2021/06/16 04:35:49;;;;;;;19.70;17.90;;;;;;;;;;5052753;28;20502;-60
2021/06/16 04:38:14;;;;;;;19.02;17.45;;;;;;;;;;5061508;28;20186;-60
2021/06/16 04:40:39;;;;;;;19.73;18.13;;;;;;;;;;5076139;28;20278;-60
2021/06/16 04:43:04;;;;;;;19.53;18.03;;;;;;;;;;5071089;28;20171;-60
2021/06/16 04:45:30;;;;;;;20.52;18.95;;;;;;;;;;5059759;28;20364;-60
2021/06/16 04:47:55;;;;;;;19.40;17.80;;;;;;;;;;5074420;28;20194;-60
2021/06/16 04:50:20;;;;;;;19.40;17.93;;;;;;;;;;5071720;28;20193;-59
2021/06/16 04:52:45;;;;;;;20.07;18.17;;;;;;;;;;5068230;28;20239;-60
2021/06/16 04:55:11;;;;;;;20.83;19.13;;;;;;;;;;5066745;28;20223;-60
2021/06/16 04:57:36;;;;;;;19.03;17.63;;;;;;;;;;5069466;28;20218;-60
2021/06/16 05:00:03;;;;;;;21.23;19.10;;;;;;;;;;5062515;28;21364;-60
2021/06/16 05:02:28;;;;;;;21.30;19.50;;;;;;;;;;5073922;28;20202;-58
2021/06/16 05:04:53;;;;;;;20.80;19.20;;;;;;;;;;5074436;28;20640;-59
2021/06/16 05:07:19;;;;;;;21.27;19.50;;;;;;;;;;5067540;28;20163;-58
2021/06/16 05:09:44;;;;;;;21.43;19.70;;;;;;;;;;5060645;28;20199;-59
2021/06/16 05:12:09;;;;;;;20.38;18.77;;;;;;;;;;5059602;28;20164;-58
2021/06/16 05:14:34;;;;;;;20.60;18.80;;;;;;;;;;5054070;28;20191;-59
2021/06/16 05:16:59;;;;;;;19.40;17.70;;;;;;;;;;5073405;28;20233;-59
2021/06/16 05:19:25;;;;;;;18.53;17.03;;;;;;;;;;5061956;28;20687;-59
2021/06/16 05:21:50;;;;;;;20.10;18.57;;;;;;;;;;5057173;28;20179;-59
2021/06/16 05:24:16;;;;;;;21.60;19.80;;;;;;;;;;5058592;28;20183;-59
2021/06/16 05:26:41;;;;;;;19.20;17.80;;;;;;;;;;5063440;28;20260;-59
2021/06/16 05:29:07;;;;;;;18.73;17.23;;;;;;;;;;5061579;28;20635;-59
2021/06/16 05:31:32;;;;;;;19.37;17.57;;;;;;;;;;5057832;28;20205;-59
2021/06/16 05:33:57;;;;;;;18.87;17.17;;;;;;;;;;5057783;28;20550;-60
2021/06/16 05:36:24;;;;;;;20.27;18.65;;;;;;;;;;5059620;28;20242;-60
2021/06/16 05:38:49;;;;;;;19.13;17.53;;;;;;;;;;5063420;28;20192;-59
2021/06/16 05:41:14;;;;;;;19.73;18.17;;;;;;;;;;5059747;28;21011;-59
2021/06/16 05:43:39;;;;;;;19.00;17.40;;;;;;;;;;5057900;28;20180;-60
2021/06/16 05:46:04;;;;;;;18.73;17.13;;;;;;;;;;5045174;28;20243;-60
2021/06/16 05:48:29;;;;;;;19.47;17.97;;;;;;;;;;5040918;28;20194;-60
2021/06/16 05:50:55;;;;;;;21.52;19.77;;;;;;;;;;5043639;28;20275;-59
2021/06/16 05:53:20;;;;;;;19.37;17.73;;;;;;;;;;5039505;28;20206;-59
2021/06/16 05:55:45;;;;;;;22.03;20.20;;;;;;;;;;5037587;28;20230;-60
2021/06/16 05:58:11;;;;;;;18.33;16.92;;;;;;;;;;5039096;28;20187;-59
2021/06/16 06:00:36;;;;;;;19.35;17.50;;;;;;;;;;5041576;28;20171;-60
2021/06/16 06:03:01;;;;;;;18.77;17.27;;;;;;;;;;5045338;28;20248;-59
2021/06/16 06:05:27;;;;;;;19.60;17.87;;;;;;;;;;5046764;28;20179;-59
2021/06/16 06:07:52;;;;;;;21.20;19.47;;;;;;;;;;5045170;28;20262;-58
2021/06/16 06:10:17;;;;;;;19.17;17.37;;;;;;;;;;5047072;28;20180;-59
2021/06/16 06:12:42;;;;;;;18.60;17.03;;;;;;;;;;5049966;28;20584;-59
2021/06/16 06:15:08;;;;;;;18.80;17.40;;;;;;;;;;5041330;28;20175;-58
2021/06/16 06:17:36;;;;;;;22.33;20.33;;;;;;;;;;5046783;28;20704;-59
2021/06/16 06:20:02;;;;;;;17.13;15.83;;;;;;;;;;5046662;28;20650;-59
2021/06/16 06:22:27;;;;;;;23.70;21.77;;;;;;;;;;5063429;28;20591;-59
2021/06/16 06:24:52;;;;;;;20.52;18.92;;;;;;;;;;5082393;28;20171;-59
2021/06/16 06:27:17;;;;;;;20.90;19.10;;;;;;;;;;5079302;28;20179;-60
2021/06/16 06:29:42;;;;;;;18.30;16.70;;;;;;;;;;5085083;28;20183;-60
2021/06/16 06:32:07;;;;;;;17.00;15.70;;;;;;;;;;5081363;28;20210;-59
2021/06/16 06:34:33;;;;;;;18.90;17.50;;;;;;;;;;5048578;28;20214;-59
2021/06/16 06:36:58;;;;;;;17.40;16.13;;;;;;;;;;5042827;28;20289;-58
2021/06/16 06:39:23;;;;;;;20.33;18.63;;;;;;;;;;5041278;28;20237;-58
2021/06/16 06:41:48;;;;;;;17.90;16.50;;;;;;;;;;5040812;28;20174;-59
2021/06/16 06:44:14;;;;;;;20.17;18.27;;;;;;;;;;5045411;28;20179;-59
2021/06/16 06:46:39;;;;;;;18.27;16.85;;;;;;;;;;5062414;28;20264;-60
2021/06/16 06:49:04;;;;;;;18.03;16.57;;;;;;;;;;5061087;28;20221;-60
2021/06/16 06:51:29;;;;;;;20.15;18.67;;;;;;;;;;5069647;28;20172;-61
2021/06/16 06:53:54;;;;;;;19.27;17.77;;;;;;;;;;5070175;28;20201;-61
2021/06/16 06:56:19;;;;;;;20.10;18.27;;;;;;;;;;5044213;28;20600;-62
2021/06/16 06:58:44;;;;;;;18.53;17.10;;;;;;;;;;5058059;28;20168;-62
2021/06/16 07:01:10;;;;;;;19.87;18.27;;;;;;;;;;5071473;28;20920;-63
2021/06/16 07:03:35;;;;;;;18.70;17.10;;;;;;;;;;5061225;28;20192;-61
2021/06/16 07:06:00;;;;;;;20.55;18.90;;;;;;;;;;5063439;28;20638;-60
2021/06/16 07:08:25;;;;;;;21.77;19.87;;;;;;;;;;5056687;28;20319;-60
2021/06/16 07:10:50;;;;;;;19.38;17.88;;;;;;;;;;5083729;28;20188;-60
2021/06/16 07:13:15;;;;;;;20.07;18.30;;;;;;;;;;5084250;28;20595;-59
2021/06/16 07:15:41;;;;;;;20.23;18.63;;;;;;;;;;5079701;28;20204;-61
2021/06/16 07:18:06;;;;;;;18.30;16.90;;;;;;;;;;5080627;28;20199;-60
2021/06/16 07:20:31;;;;;;;20.38;18.77;;;;;;;;;;5050604;28;20710;-59
2021/06/16 07:22:56;;;;;;;20.10;18.33;;;;;;;;;;5055822;28;20316;-60
2021/06/16 07:25:21;;;;;;;18.30;16.93;;;;;;;;;;5062187;28;20645;-60
2021/06/16 07:27:47;;;;;;;18.80;17.20;;;;;;;;;;5059686;28;20166;-60
2021/06/16 07:30:12;;;;;;;16.87;15.50;;;;;;;;;;5059749;28;20206;-58
2021/06/16 07:32:38;;;;;;;20.03;18.20;;;;;;;;;;5059377;28;20187;-60
2021/06/16 07:35:03;;;;;;;20.20;18.80;;;;;;;;;;5063038;28;20180;-59
2021/06/16 07:37:28;;;;;;;18.27;16.77;;;;;;;;;;5063180;28;20175;-58
2021/06/16 07:39:54;;;;;;;17.50;16.10;;;;;;;;;;5061478;28;20181;-58
2021/06/16 07:42:19;;;;;;;16.30;15.20;;;;;;;;;;5058004;28;20262;-58
2021/06/16 07:44:45;;;;;;;17.77;16.53;;;;;;;;;;5061244;28;20674;-59
2021/06/16 07:47:10;;;;;;;17.40;16.00;;;;;;;;;;5062748;28;20188;-59
2021/06/16 07:49:35;;;;;;;18.70;17.30;;;;;;;;;;5063067;28;20177;-58
2021/06/16 07:52:00;;;;;;;19.00;17.50;;;;;;;;;;5060966;28;20208;-59
2021/06/16 07:54:25;;;;;;;17.83;16.53;;;;;;;;;;5043072;28;20275;-59
2021/06/16 07:56:50;;;;;;;19.03;17.43;;;;;;;;;;5039607;28;20202;-60
2021/06/16 07:59:16;;;;;;;19.15;17.65;;;;;;;;;;5044690;28;20179;-60
2021/06/16 08:01:43;;;;;;;17.67;16.17;;;;;;;;;;5044508;28;20270;-58
2021/06/16 08:04:08;;;;;;;17.03;15.30;;;;;;;;;;5048672;28;20273;-59
2021/06/16 08:06:33;;;;;;;17.60;16.27;;;;;;;;;;5058725;28;20689;-59
2021/06/16 08:08:58;;;;;;;17.80;16.30;;;;;;;;;;5061041;28;20184;-59
2021/06/16 08:11:23;;;;;;;18.30;16.90;;;;;;;;;;5059176;28;20212;-59
2021/06/16 08:13:49;;;;;;;17.53;16.20;;;;;;;;;;5064478;28;20182;-59
2021/06/16 08:16:17;;;;;;;16.63;15.30;;;;;;;;;;5060512;28;20200;-59
2021/06/16 08:18:42;;;;;;;20.07;18.37;;;;;;;;;;5057892;28;20212;-59
2021/06/16 08:21:08;;;;;;;16.60;15.40;;;;;;;;;;5058820;28;20582;-59
2021/06/16 08:23:33;;;;;;;20.60;18.80;;;;;;;;;;5060445;28;20170;-59
2021/06/16 08:25:58;;;;;;;18.67;17.27;;;;;;;;;;5059671;28;20221;-59
2021/06/16 08:28:24;;;;;;;16.93;15.43;;;;;;;;;;5058814;28;20310;-59
2021/06/16 08:30:49;;;;;;;17.17;16.00;;;;;;;;;;5064575;28;20176;-58
2021/06/16 08:33:14;;;;;;;14.63;13.53;;;;;;;;;;5060615;28;20165;-58
2021/06/16 08:35:39;;;;;;;15.02;13.90;;;;;;;;;;5058163;28;20286;-59
2021/06/16 08:38:04;;;;;;;12.80;11.90;;;;;;;;;;5056944;28;20638;-58
2021/06/16 08:40:30;;;;;;;15.10;14.07;;;;;;;;;;5038799;28;20642;-58
2021/06/16 08:42:55;;;;;;;15.80;14.60;;;;;;;;;;5043923;28;20169;-59
2021/06/16 08:45:21;;;;;;;14.23;13.13;;;;;;;;;;5042404;28;20175;-59
2021/06/16 08:47:46;;;;;;;14.47;13.37;;;;;;;;;;5038626;28;20261;-59
2021/06/16 08:50:12;;;;;;;13.90;12.70;;;;;;;;;;5040103;28;20170;-59
2021/06/16 08:52:38;;;;;;;14.10;13.13;;;;;;;;;;5062306;28;20186;-59
2021/06/16 08:55:04;;;;;;;13.30;12.30;;;;;;;;;;5062237;28;20250;-59
2021/06/16 08:57:29;;;;;;;15.27;14.07;;;;;;;;;;5061881;28;20218;-61
2021/06/16 08:59:54;;;;;;;15.00;13.80;;;;;;;;;;5058688;28;20584;-59
2021/06/16 09:02:19;;;;;;;14.77;13.68;;;;;;;;;;5057833;28;20261;-58
2021/06/16 09:04:47;;;;;;;15.20;13.83;;;;;;;;;;5063113;28;20706;-58
2021/06/16 09:07:13;;;;;;;15.20;13.90;;;;;;;;;;5062042;28;20196;-58
2021/06/16 09:09:39;;;;;;;14.07;12.97;;;;;;;;;;5060017;28;20652;-57
2021/06/16 09:12:06;;;;;;;15.07;13.87;;;;;;;;;;5048471;28;20687;-58
2021/06/16 09:14:31;;;;;;;15.03;14.03;;;;;;;;;;5041711;28;20262;-58
2021/06/16 09:17:00;;;;;;;13.30;12.30;;;;;;;;;;5043587;28;21135;-58
2021/06/16 09:19:26;;;;;;;15.57;14.27;;;;;;;;;;5042285;28;20204;-58
2021/06/16 09:22:03;;;;;;;13.60;12.50;;;;;;;;;;5051694;28;20666;-59
2021/06/16 09:24:40;;;;;;;16.80;15.60;;;;;;;;;;5043928;28;20653;-58
2021/06/16 09:27:05;;;;;;;13.90;12.90;;;;;;;;;;5062166;28;20563;-60
2021/06/16 09:29:30;;;;;;;13.77;12.87;;;;;;;;;;5063667;28;21134;-59
2021/06/16 09:32:05;;;;;;;14.83;13.63;;;;;;;;;;5060321;28;20173;-60
2021/06/16 09:34:31;;;;;;;14.77;13.60;;;;;;;;;;5060509;28;20235;-59
2021/06/16 09:36:57;;;;;;;14.97;13.77;;;;;;;;;;5063196;28;20606;-59
2021/06/16 09:39:24;;;;;;;13.47;12.47;;;;;;;;;;5061635;28;20179;-59
2021/06/16 09:41:56;;;;;;;13.10;12.03;;;;;;;;;;5058102;28;20589;-59
2021/06/16 09:44:39;;;;;;;14.73;13.60;;;;;;;;;;5044327;28;20989;-59
2021/06/16 09:47:11;;;;;;;13.80;12.77;;;;;;;;;;5059508;28;20667;-60
2021/06/16 09:49:50;;;;;;;13.73;12.57;;;;;;;;;;5062116;28;20603;-58
2021/06/16 09:52:31;;;;;;;14.30;13.30;;;;;;;;;;5063606;28;21226;-58
2021/06/16 09:54:57;;;;;;;12.83;11.80;;;;;;;;;;5066934;28;20626;-59
2021/06/16 09:57:23;;;;;;;14.13;13.00;;;;;;;;;;5050308;28;20645;-59
2021/06/16 09:59:49;;;;;;;13.47;12.27;;;;;;;;;;5050053;28;21037;-58
2021/06/16 10:02:16;;;;;;;14.30;13.10;;;;;;;;;;5059961;28;20667;-58
2021/06/16 10:04:44;;;;;;;14.07;13.07;;;;;;;;;;5065187;28;20583;-58
2021/06/16 10:07:10;;;;;;;12.97;11.87;;;;;;;;;;5065311;28;20554;-59
2021/06/16 10:09:37;;;;;;;14.27;13.20;;;;;;;;;;5064590;28;20563;-59
2021/06/16 10:12:02;;;;;;;13.67;12.67;;;;;;;;;;5042433;28;20613;-60
2021/06/16 10:14:27;;;;;;;16.20;14.90;;;;;;;;;;5042858;28;20578;-59
2021/06/16 10:16:53;;;;;;;15.07;13.63;;;;;;;;;;5041046;28;20302;-59
2021/06/16 10:19:18;;;;;;;13.67;12.57;;;;;;;;;;5058377;28;20169;-59
2021/06/16 10:21:44;;;;;;;14.98;13.88;;;;;;;;;;5064503;28;20697;-60
2021/06/16 10:24:09;;;;;;;14.40;13.07;;;;;;;;;;5061468;28;20181;-60
2021/06/16 10:26:34;;;;;;;14.90;13.52;;;;;;;;;;5060956;28;20177;-59
2021/06/16 10:29:00;;;;;;;13.93;12.70;;;;;;;;;;5063121;28;20189;-60
2021/06/16 10:31:36;;;;;;;15.10;13.67;;;;;;;;;;5061281;28;20181;-60
2021/06/16 10:34:01;;;;;;;15.80;14.20;;;;;;;;;;5066174;28;20197;-60
2021/06/16 10:36:26;;;;;;;14.53;13.43;;;;;;;;;;5062552;28;20625;-60
2021/06/16 10:39:00;;;;;;;14.37;13.37;;;;;;;;;;5061124;28;20189;-59
2021/06/16 10:41:41;;;;;;;14.63;13.63;;;;;;;;;;5061078;28;20195;-59
2021/06/16 10:44:09;;;;;;;14.73;13.57;;;;;;;;;;5062371;28;20586;-60
2021/06/16 10:46:48;;;;;;;13.27;12.17;;;;;;;;;;5066133;28;20580;-58
2021/06/16 10:49:13;;;;;;;14.87;13.77;;;;;;;;;;5053798;28;20575;-59
2021/06/16 10:51:41;;;;;;;14.23;13.10;;;;;;;;;;5060509;28;20574;-59
2021/06/16 10:54:18;;;;;;;14.70;13.53;;;;;;;;;;5060554;28;20561;-58
2021/06/16 10:56:45;;;;;;;14.47;13.37;;;;;;;;;;5065428;28;20603;-59
2021/06/16 10:59:10;;;;;;;14.50;13.33;;;;;;;;;;5064304;28;20573;-59
2021/06/16 11:01:49;;;;;;;14.00;13.00;;;;;;;;;;5043914;28;20594;-60
2021/06/16 11:04:30;;;;;;;12.93;11.93;;;;;;;;;;5040362;28;20752;-59
2021/06/16 11:06:56;;;;;;;13.27;12.07;;;;;;;;;;5045393;28;20577;-58
2021/06/16 11:09:39;;;;;;;13.87;12.87;;;;;;;;;;5044252;28;21014;-58
2021/06/16 11:12:06;;;;;;;14.80;13.60;;;;;;;;;;5056600;28;20175;-58
2021/06/16 11:14:39;;;;;;;13.33;12.23;;;;;;;;;;5062000;28;20552;-59
2021/06/16 11:17:04;;;;;;;14.10;13.03;;;;;;;;;;5063521;28;20738;-58
2021/06/16 11:19:35;;;;;;;12.75;11.95;;;;;;;;;;5065465;28;20639;-58
2021/06/16 11:22:04;;;;;;;13.97;12.73;;;;;;;;;;5049027;28;20176;-59
2021/06/16 11:24:48;;;;;;;13.73;12.63;;;;;;;;;;5041920;28;20562;-59
2021/06/16 11:27:13;;;;;;;12.20;11.30;;;;;;;;;;5039785;28;20578;-60
2021/06/16 11:29:56;;;;;;;12.03;11.23;;;;;;;;;;5042260;28;20622;-60
2021/06/16 11:32:22;;;;;;;11.57;10.87;;;;;;;;;;5046006;28;20563;-60
2021/06/16 11:34:48;;;;;;;13.30;12.03;;;;;;;;;;5058247;28;20572;-60
2021/06/16 11:37:33;;;;;;;12.47;11.60;;;;;;;;;;5059133;28;20946;-59
2021/06/16 11:40:02;;;;;;;12.47;11.67;;;;;;;;;;5060821;28;20790;-60
2021/06/16 11:42:27;;;;;;;12.43;11.63;;;;;;;;;;5059370;28;20567;-60
2021/06/16 11:44:53;;;;;;;12.65;11.75;;;;;;;;;;5063365;28;20568;-59
2021/06/16 11:47:18;;;;;;;13.37;12.03;;;;;;;;;;5063280;28;20179;-60
2021/06/16 11:49:43;;;;;;;11.87;11.07;;;;;;;;;;5059337;28;20216;-59
2021/06/16 11:52:09;;;;;;;12.40;11.50;;;;;;;;;;5059698;28;20218;-58
2021/06/16 11:54:38;;;;;;;12.83;11.83;;;;;;;;;;5063019;28;20235;-59
2021/06/16 11:57:06;;;;;;;12.57;11.57;;;;;;;;;;5063703;28;20199;-59
2021/06/16 11:59:33;;;;;;;12.13;11.20;;;;;;;;;;5059650;28;20593;-59
2021/06/16 12:02:18;;;;;;;12.40;11.40;;;;;;;;;;5061147;28;20863;-59
2021/06/16 12:04:48;;;;;;;13.70;12.53;;;;;;;;;;5062444;28;21070;-59
2021/06/16 12:07:19;;;;;;;13.23;12.13;;;;;;;;;;5062615;28;20648;-59
2021/06/16 12:09:47;;;;;;;13.10;12.20;;;;;;;;;;5059062;28;20651;-59
2021/06/16 12:12:13;;;;;;;12.07;11.17;;;;;;;;;;5058443;28;20588;-59
2021/06/16 12:14:38;;;;;;;12.50;11.50;;;;;;;;;;5059556;28;20574;-58
2021/06/16 12:17:04;;;;;;;12.73;11.73;;;;;;;;;;5058123;28;20220;-59
2021/06/16 12:19:32;;;;;;;11.80;10.90;;;;;;;;;;5064228;28;20197;-60
2021/06/16 12:21:59;;;;;;;12.37;11.40;;;;;;;;;;5062288;28;20698;-59
2021/06/16 12:24:28;;;;;;;12.37;11.43;;;;;;;;;;5062038;28;20698;-60
2021/06/16 12:26:57;;;;;;;12.07;11.20;;;;;;;;;;5061044;28;20601;-59
2021/06/16 12:29:22;;;;;;;12.17;11.17;;;;;;;;;;5059239;28;20660;-59
2021/06/16 12:31:50;;;;;;;12.13;11.23;;;;;;;;;;5057191;28;20690;-59
2021/06/16 12:37:07;;;;;;;12.87;12.07;;;;;;;;;;5063859;28;20660;-59
2021/06/16 12:39:33;;;;;;;13.77;12.47;;;;;;;;;;5062222;28;20548;-60
2021/06/16 12:42:03;;;;;;;13.30;12.20;;;;;;;;;;5060206;28;20536;-58
2021/06/16 12:44:34;;;;;;;13.13;12.07;;;;;;;;;;5058212;28;20334;-58
2021/06/16 12:47:03;;;;;;;12.47;11.47;;;;;;;;;;5060155;28;20613;-58
2021/06/16 12:49:29;;;;;;;11.33;10.63;;;;;;;;;;5063897;28;20626;-59
2021/06/16 12:51:55;;;;;;;13.30;12.10;;;;;;;;;;5062237;28;20621;-59
2021/06/16 12:54:27;;;;;;;12.50;11.70;;;;;;;;;;5058598;28;20630;-58
2021/06/16 12:57:03;;;;;;;11.50;10.70;;;;;;;;;;5056855;28;21030;-59
2021/06/16 12:59:35;;;;;;;12.57;11.73;;;;;;;;;;5058287;28;20539;-59
2021/06/16 13:02:00;;;;;;;13.07;12.03;;;;;;;;;;5063697;28;20609;-59
2021/06/16 13:04:44;;;;;;;12.83;11.93;;;;;;;;;;5060412;28;20630;-59
2021/06/16 13:07:09;;;;;;;12.10;11.30;;;;;;;;;;5058068;28;20551;-58
2021/06/16 13:09:34;;;;;;;11.87;10.97;;;;;;;;;;5056123;28;20575;-59
2021/06/16 13:12:03;;;;;;;11.53;10.80;;;;;;;;;;5059837;28;20900;-59
2021/06/16 13:14:32;;;;;;;12.03;11.17;;;;;;;;;;5063579;28;20217;-59
2021/06/16 13:16:58;;;;;;;11.73;10.90;;;;;;;;;;5062887;28;21205;-59
2021/06/16 13:19:23;;;;;;;11.50;10.70;;;;;;;;;;5058743;28;20584;-58
2021/06/16 13:21:58;;;;;;;11.90;11.00;;;;;;;;;;5056161;28;20602;-58
2021/06/16 13:24:23;;;;;;;11.80;10.70;;;;;;;;;;5060272;28;20199;-59
2021/06/16 13:26:57;;;;;;;11.50;10.80;;;;;;;;;;5063405;28;20572;-59
2021/06/16 13:29:26;;;;;;;10.73;9.93;;;;;;;;;;5060536;28;20974;-58
2021/06/16 13:31:52;;;;;;;11.00;10.30;;;;;;;;;;5058610;28;20552;-58
2021/06/16 13:34:17;;;;;;;11.20;10.40;;;;;;;;;;5057285;28;20589;-59
2021/06/16 13:36:42;;;;;;;10.98;10.18;;;;;;;;;;5058759;28;20254;-58
2021/06/16 13:39:07;;;;;;;11.03;10.20;;;;;;;;;;5061579;28;20187;-59
2021/06/16 13:41:33;;;;;;;11.40;10.60;;;;;;;;;;5061579;28;20179;-59
2021/06/16 13:43:58;;;;;;;11.20;10.20;;;;;;;;;;5048435;28;20172;-58
2021/06/16 13:46:23;;;;;;;10.87;10.07;;;;;;;;;;5038000;28;20208;-59
2021/06/16 13:48:48;;;;;;;11.40;10.70;;;;;;;;;;5038056;28;20183;-58
2021/06/16 13:51:14;;;;;;;12.18;11.15;;;;;;;;;;5041105;28;20184;-58
2021/06/16 13:53:39;;;;;;;12.33;11.43;;;;;;;;;;5047449;28;20276;-59
2021/06/16 13:56:05;;;;;;;10.50;9.80;;;;;;;;;;5056908;28;20634;-58
2021/06/16 13:58:30;;;;;;;10.40;9.70;;;;;;;;;;5057768;28;20963;-59
2021/06/16 14:00:55;;;;;;;9.70;9.10;;;;;;;;;;5059733;28;20665;-59
2021/06/16 14:03:21;;;;;;;9.50;8.90;;;;;;;;;;5058032;28;20206;-60
2021/06/16 14:05:46;;;;;;;9.40;8.80;;;;;;;;;;5061253;28;20207;-59
2021/06/16 14:08:12;;;;;;;10.70;9.80;;;;;;;;;;5061356;28;20179;-59
2021/06/16 14:10:37;;;;;;;10.20;9.40;;;;;;;;;;5059962;28;20171;-59
2021/06/16 14:13:03;;;;;;;10.47;9.67;;;;;;;;;;5059302;28;20255;-60
2021/06/16 14:15:29;;;;;;;10.23;9.63;;;;;;;;;;5057942;28;20575;-59
2021/06/16 14:17:54;;;;;;;11.60;10.70;;;;;;;;;;5061003;28;20537;-59